Time;durP1;ratioP1;P1;durP2;ratioP2;P2;SDS_P1;SDS_P2;PMS_P1;PMS_P2;Temp;Humidity;BMP_temperature;BMP_pressure;BME280_temperature;BME280_humidity;BME280_pressure;Samples;Min_cycle;Max_cycle;Signal;HPM_P1;HPM_P2
2023/05/07 00:00:49;;;;;;;1.40;0.50;;;19.80;64.80;;;;;;4990138;28;20415;-72
2023/05/07 00:03:18;;;;;;;1.50;0.68;;;19.80;64.80;;;;;;4990207;28;20101;-72
2023/05/07 00:05:46;;;;;;;1.50;0.50;;;19.80;64.80;;;;;;4989949;28;20066;-72
2023/05/07 00:08:13;;;;;;;1.60;0.60;;;19.80;64.80;;;;;;4989943;28;20050;-72
2023/05/07 00:10:40;;;;;;;1.50;0.82;;;19.70;64.70;;;;;;4989890;28;20058;-72
2023/05/07 00:13:07;;;;;;;1.50;0.50;;;19.70;64.70;;;;;;4989426;28;20065;-71
2023/05/07 00:15:34;;;;;;;1.55;0.55;;;19.80;64.80;;;;;;4989768;28;20451;-71
2023/05/07 00:18:01;;;;;;;1.30;0.50;;;19.70;64.70;;;;;;4988617;28;20059;-72
2023/05/07 00:20:29;;;;;;;1.50;0.70;;;19.70;65.30;;;;;;4990062;28;20059;-71
2023/05/07 00:22:56;;;;;;;2.22;0.77;;;19.80;64.80;;;;;;4988591;28;20418;-72
2023/05/07 00:25:23;;;;;;;1.80;0.75;;;19.70;64.70;;;;;;4988507;28;20424;-72
2023/05/07 00:27:50;;;;;;;1.65;0.60;;;19.80;64.80;;;;;;4989623;28;20058;-72
2023/05/07 00:30:17;;;;;;;1.70;0.88;;;19.80;65.40;;;;;;4988218;28;20054;-72
2023/05/07 00:32:45;;;;;;;1.50;0.70;;;19.70;64.70;;;;;;4988331;28;20054;-72
2023/05/07 00:35:12;;;;;;;1.63;0.45;;;19.70;64.70;;;;;;4989694;28;20089;-72
2023/05/07 00:37:40;;;;;;;1.30;0.57;;;19.70;64.80;;;;;;4989992;28;20046;-72
2023/05/07 00:40:08;;;;;;;1.30;0.50;;;19.70;64.70;;;;;;4992076;28;20054;-72
2023/05/07 00:42:36;;;;;;;1.55;0.70;;;19.70;64.70;;;;;;4992141;28;20053;-71
2023/05/07 00:45:03;;;;;;;1.42;0.43;;;19.70;64.70;;;;;;4992863;28;20066;-72
2023/05/07 00:47:31;;;;;;;2.15;1.02;;;19.70;64.70;;;;;;4991942;28;20054;-71
2023/05/07 00:49:58;;;;;;;1.48;0.55;;;19.70;64.70;;;;;;4991915;28;20073;-72
2023/05/07 00:52:27;;;;;;;1.77;0.95;;;19.70;64.70;;;;;;4992934;28;20133;-72
2023/05/07 00:54:56;;;;;;;1.77;0.65;;;19.70;64.70;;;;;;4993229;28;20124;-72
2023/05/07 00:57:23;;;;;;;2.38;0.75;;;19.70;64.70;;;;;;4993072;28;20051;-71
2023/05/07 00:59:51;;;;;;;1.50;0.73;;;19.70;64.70;;;;;;4991731;28;20058;-72
2023/05/07 01:02:18;;;;;;;2.22;0.63;;;19.70;65.30;;;;;;4991329;28;20190;-72
2023/05/07 01:04:45;;;;;;;1.50;0.70;;;19.70;64.70;;;;;;4992724;28;20083;-72
2023/05/07 01:07:12;;;;;;;2.05;0.85;;;19.70;64.70;;;;;;4991194;28;20058;-71
2023/05/07 01:09:39;;;;;;;1.50;0.70;;;19.70;64.70;;;;;;4992806;28;20081;-71
2023/05/07 01:12:08;;;;;;;1.80;0.80;;;19.70;64.70;;;;;;4992478;28;20451;-71
2023/05/07 01:14:36;;;;;;;1.58;0.63;;;19.70;64.70;;;;;;4992523;28;20058;-72
2023/05/07 01:17:03;;;;;;;1.95;0.75;;;19.70;64.70;;;;;;4992683;28;20057;-72
2023/05/07 01:19:31;;;;;;;1.73;0.82;;;19.70;64.70;;;;;;4992578;28;20054;-71
2023/05/07 01:22:04;;;;;;;2.10;0.82;;;19.70;64.70;;;;;;4991358;28;20080;-72
2023/05/07 01:24:34;;;;;;;2.15;0.90;;;19.70;64.70;;;;;;4992516;28;20055;-72
2023/05/07 01:27:02;;;;;;;2.17;0.98;;;19.70;64.70;;;;;;4992339;28;20069;-71
2023/05/07 01:29:29;;;;;;;1.88;0.95;;;19.70;64.70;;;;;;4992350;28;20089;-72
2023/05/07 01:31:58;;;;;;;1.75;0.73;;;19.70;64.70;;;;;;4990823;28;20050;-72
2023/05/07 01:34:26;;;;;;;;;;;19.70;64.70;;;;;;4992857;28;20057;-72
2023/05/07 01:36:55;;;;;;;1.92;1.00;;;19.70;64.70;;;;;;4992342;28;19926;-72
2023/05/07 01:39:22;;;;;;;2.20;0.70;;;19.60;64.60;;;;;;4992103;28;20407;-71
2023/05/07 01:41:51;;;;;;;2.25;1.13;;;19.60;64.70;;;;;;4992204;28;20050;-72
2023/05/07 01:44:19;;;;;;;2.30;1.08;;;19.70;64.70;;;;;;4991554;28;20050;-71
2023/05/07 01:46:48;;;;;;;1.73;0.80;;;19.70;65.30;;;;;;4991945;28;20046;-72
2023/05/07 01:49:16;;;;;;;1.60;0.82;;;19.70;64.70;;;;;;4990073;28;20046;-71
2023/05/07 01:51:43;;;;;;;2.17;1.33;;;19.60;64.60;;;;;;4990544;28;20082;-72
2023/05/07 01:54:10;;;;;;;2.50;1.30;;;19.60;64.70;;;;;;4990353;28;20463;-71
2023/05/07 01:56:37;;;;;;;2.58;1.15;;;19.60;64.60;;;;;;4991930;28;20050;-72
2023/05/07 01:59:06;;;;;;;2.42;1.17;;;19.60;64.60;;;;;;4992076;28;20069;-71
2023/05/07 02:01:32;;;;;;;1.90;0.88;;;19.70;64.70;;;;;;4992073;28;20089;-72
2023/05/07 02:03:59;;;;;;;2.22;1.23;;;19.60;64.60;;;;;;5011526;28;20054;-71
2023/05/07 02:06:26;;;;;;;2.40;1.25;;;19.60;64.70;;;;;;5011467;28;20061;-72
2023/05/07 02:08:53;;;;;;;2.85;1.35;;;19.60;64.70;;;;;;5011530;28;20149;-72
2023/05/07 02:11:20;;;;;;;1.95;1.10;;;19.60;64.70;;;;;;5011446;28;20045;-72
2023/05/07 02:13:47;;;;;;;2.40;1.10;;;19.60;64.60;;;;;;5010765;28;20107;-72
2023/05/07 02:16:15;;;;;;;2.22;1.10;;;19.60;64.60;;;;;;5011358;28;20054;-72
2023/05/07 02:18:42;;;;;;;2.28;1.20;;;19.60;64.60;;;;;;5011222;28;20534;-71
2023/05/07 02:21:09;;;;;;;2.28;1.30;;;19.60;64.60;;;;;;5011146;28;20042;-72
2023/05/07 02:23:36;;;;;;;2.30;1.27;;;19.60;65.20;;;;;;5011366;28;20058;-71
2023/05/07 02:26:04;;;;;;;2.20;0.98;;;19.60;64.60;;;;;;5011117;28;20053;-72
2023/05/07 02:28:31;;;;;;;2.05;1.17;;;19.60;64.70;;;;;;5011182;28;20045;-71
2023/05/07 02:31:00;;;;;;;2.17;1.13;;;19.60;64.70;;;;;;5011041;28;20415;-72
2023/05/07 02:33:28;;;;;;;2.25;1.02;;;19.60;64.70;;;;;;5009658;28;20483;-71
2023/05/07 02:35:55;;;;;;;2.55;1.20;;;19.60;64.70;;;;;;5010777;28;20510;-72
2023/05/07 02:38:23;;;;;;;2.35;1.58;;;19.60;64.60;;;;;;5009571;28;20108;-71
2023/05/07 02:40:50;;;;;;;2.35;1.20;;;19.60;64.70;;;;;;5009584;28;20053;-70
2023/05/07 02:43:17;;;;;;;2.75;1.25;;;19.60;64.60;;;;;;5006943;28;20065;-71
2023/05/07 02:45:44;;;;;;;2.65;1.60;;;19.60;64.60;;;;;;4990003;28;20054;-71
2023/05/07 02:48:11;;;;;;;2.50;1.27;;;19.60;64.70;;;;;;4991057;28;20116;-71
2023/05/07 02:50:39;;;;;;;2.38;1.40;;;19.60;64.70;;;;;;4991090;28;20051;-71
2023/05/07 02:53:06;;;;;;;2.30;1.33;;;19.60;64.70;;;;;;4989297;28;20062;-72
2023/05/07 02:55:33;;;;;;;2.60;1.33;;;19.50;64.60;;;;;;4990662;28;20514;-72
2023/05/07 02:58:00;;;;;;;2.92;1.58;;;19.60;64.70;;;;;;4991007;28;20054;-71
2023/05/07 03:00:27;;;;;;;2.45;1.40;;;19.50;64.60;;;;;;4989156;28;20061;-71
2023/05/07 03:02:54;;;;;;;2.55;1.30;;;19.50;65.20;;;;;;4989539;28;20054;-71
2023/05/07 03:05:22;;;;;;;3.08;1.63;;;19.50;64.60;;;;;;4990861;28;20053;-71
2023/05/07 03:07:50;;;;;;;2.35;1.35;;;19.50;64.60;;;;;;4989087;28;20057;-72
2023/05/07 03:10:18;;;;;;;2.60;1.45;;;19.50;64.60;;;;;;4989176;28;20050;-71
2023/05/07 03:12:45;;;;;;;2.92;1.52;;;19.50;64.60;;;;;;4990253;28;20053;-72
2023/05/07 03:15:12;;;;;;;3.22;1.83;;;19.50;64.60;;;;;;4990471;28;20046;-72
2023/05/07 03:17:39;;;;;;;2.90;1.52;;;19.50;64.60;;;;;;4990524;28;20077;-72
2023/05/07 03:20:08;;;;;;;2.83;1.42;;;19.50;64.60;;;;;;4990290;28;20484;-72
2023/05/07 03:22:35;;;;;;;2.78;1.60;;;19.50;64.60;;;;;;4989229;28;20160;-72
2023/05/07 03:25:03;;;;;;;2.92;1.48;;;19.50;64.60;;;;;;4989140;28;20058;-72
2023/05/07 03:27:30;;;;;;;2.35;1.42;;;19.50;64.60;;;;;;4990189;28;20419;-72
2023/05/07 03:29:57;;;;;;;2.83;1.60;;;19.50;64.60;;;;;;4990088;28;20062;-72
2023/05/07 03:32:24;;;;;;;2.75;1.60;;;19.50;64.60;;;;;;4990283;28;20046;-72
2023/05/07 03:34:51;;;;;;;2.90;1.60;;;19.50;64.60;;;;;;4990568;28;20061;-72
2023/05/07 03:37:18;;;;;;;2.35;1.40;;;19.50;64.60;;;;;;4989981;28;20086;-72
2023/05/07 03:39:45;;;;;;;3.63;2.05;;;19.50;64.60;;;;;;4989169;28;20054;-71
2023/05/07 03:42:13;;;;;;;2.75;1.63;;;19.50;64.60;;;;;;4988706;28;20046;-72
2023/05/07 03:44:40;;;;;;;2.80;1.75;;;19.50;64.60;;;;;;4988685;28;20054;-72
2023/05/07 03:47:07;;;;;;;3.20;1.90;;;19.50;64.60;;;;;;4990064;28;20046;-71
2023/05/07 03:49:34;;;;;;;2.50;1.63;;;19.50;64.60;;;;;;4989942;28;20057;-72
2023/05/07 03:52:01;;;;;;;3.03;1.65;;;19.50;64.60;;;;;;4990411;28;20050;-72
2023/05/07 03:54:28;;;;;;;3.22;2.03;;;19.50;64.60;;;;;;4989801;28;20057;-72
2023/05/07 03:56:55;;;;;;;3.03;1.67;;;19.50;64.60;;;;;;4988987;28;20059;-73
2023/05/07 03:59:23;;;;;;;2.17;1.13;;;19.50;64.60;;;;;;4989892;28;20058;-70
2023/05/07 04:01:50;;;;;;;2.70;1.63;;;19.50;64.60;;;;;;4989886;28;20495;-70
2023/05/07 04:04:17;;;;;;;2.85;1.98;;;19.50;64.60;;;;;;4989975;28;20050;-70
2023/05/07 04:06:44;;;;;;;3.30;2.13;;;19.50;64.60;;;;;;4990242;28;20058;-70
2023/05/07 04:09:11;;;;;;;3.22;2.10;;;19.50;64.70;;;;;;4989843;28;20115;-70
2023/05/07 04:11:39;;;;;;;3.42;1.92;;;19.50;64.60;;;;;;4988735;28;20419;-70
2023/05/07 04:14:06;;;;;;;3.25;1.95;;;19.50;64.60;;;;;;4990767;28;20567;-70
2023/05/07 04:16:35;;;;;;;3.33;1.88;;;19.50;64.60;;;;;;4993550;28;20054;-70
2023/05/07 04:19:02;;;;;;;2.80;1.73;;;19.50;64.60;;;;;;4993798;28;20047;-70
2023/05/07 04:21:29;;;;;;;4.25;2.58;;;19.50;65.20;;;;;;4992140;28;20061;-69
2023/05/07 04:23:57;;;;;;;3.60;2.00;;;19.50;64.60;;;;;;4993509;28;20082;-71
2023/05/07 04:26:24;;;;;;;3.33;2.05;;;19.50;64.60;;;;;;4993481;28;20125;-70
2023/05/07 04:28:51;;;;;;;3.05;1.73;;;19.40;64.60;;;;;;4993204;28;20066;-70
2023/05/07 04:31:18;;;;;;;3.30;1.88;;;19.40;64.60;;;;;;4993297;28;20058;-70
2023/05/07 04:33:46;;;;;;;3.63;1.85;;;19.40;64.60;;;;;;4993537;28;20050;-71
2023/05/07 04:36:14;;;;;;;3.15;2.13;;;19.40;64.60;;;;;;4991930;28;20052;-70
2023/05/07 04:38:41;;;;;;;3.15;2.28;;;19.40;64.60;;;;;;4991848;28;20221;-69
2023/05/07 04:41:11;;;;;;;3.28;2.05;;;19.40;65.20;;;;;;4992169;28;20059;-71
2023/05/07 04:43:37;;;;;;;3.58;2.20;;;19.40;64.60;;;;;;4993019;28;20042;-71
2023/05/07 04:46:04;;;;;;;3.40;2.20;;;19.40;64.60;;;;;;4993205;28;20114;-70
2023/05/07 04:48:31;;;;;;;3.50;2.28;;;19.40;64.60;;;;;;4992982;28;20725;-70
2023/05/07 04:51:00;;;;;;;3.90;2.55;;;19.40;64.60;;;;;;4993111;28;20558;-70
2023/05/07 04:53:27;;;;;;;3.95;2.35;;;19.40;64.60;;;;;;4993149;28;20050;-70
2023/05/07 04:55:56;;;;;;;4.78;2.60;;;19.40;64.60;;;;;;4993061;28;20057;-70
2023/05/07 04:58:23;;;;;;;3.92;2.25;;;19.40;64.60;;;;;;4993192;28;20148;-70
2023/05/07 05:00:50;;;;;;;3.50;2.10;;;19.40;64.60;;;;;;4992961;28;20511;-70
2023/05/07 05:03:17;;;;;;;4.03;2.38;;;19.40;64.60;;;;;;4991644;28;20054;-70
2023/05/07 05:05:45;;;;;;;3.42;2.10;;;19.40;64.60;;;;;;4992888;28;20503;-70
2023/05/07 05:08:13;;;;;;;3.20;2.00;;;19.40;64.60;;;;;;4991510;28;20133;-70
2023/05/07 05:10:43;;;;;;;3.80;2.65;;;19.40;64.60;;;;;;4992683;28;20505;-70
2023/05/07 05:13:12;;;;;;;;;;;19.40;64.60;;;;;;4993155;28;20089;-71
2023/05/07 05:15:39;;;;;;;3.65;2.15;;;19.40;64.60;;;;;;4992964;28;19944;-70
2023/05/07 05:18:06;;;;;;;4.03;2.42;;;19.40;64.60;;;;;;4992879;28;20046;-70
2023/05/07 05:20:33;;;;;;;3.85;2.47;;;19.40;64.60;;;;;;4992945;28;20057;-70
2023/05/07 05:23:00;;;;;;;3.55;2.53;;;19.40;64.70;;;;;;4991170;28;20054;-70
2023/05/07 05:25:28;;;;;;;3.83;2.55;;;19.40;64.70;;;;;;4991303;28;20662;-71
2023/05/07 05:27:55;;;;;;;4.03;2.60;;;19.40;64.60;;;;;;4992324;28;20061;-70
2023/05/07 05:30:22;;;;;;;3.83;2.60;;;19.40;64.60;;;;;;4992593;28;20117;-70
2023/05/07 05:32:49;;;;;;;3.78;2.53;;;19.40;64.60;;;;;;4992475;28;20511;-70
2023/05/07 05:35:16;;;;;;;3.65;2.47;;;19.40;64.60;;;;;;4991220;28;20049;-71
2023/05/07 05:37:43;;;;;;;3.28;2.33;;;19.40;64.70;;;;;;4992847;28;20050;-70
2023/05/07 05:40:11;;;;;;;3.65;2.33;;;19.40;64.70;;;;;;4992635;28;20054;-71
2023/05/07 05:42:39;;;;;;;3.30;2.40;;;19.40;64.70;;;;;;4991329;28;20073;-70
2023/05/07 05:45:07;;;;;;;4.20;2.53;;;19.40;64.70;;;;;;4992532;28;20483;-70
2023/05/07 05:47:34;;;;;;;3.40;2.55;;;19.30;64.60;;;;;;4991004;28;20050;-70
2023/05/07 05:50:01;;;;;;;4.00;2.60;;;19.40;64.70;;;;;;4992180;28;20116;-70
2023/05/07 05:52:28;;;;;;;4.15;2.65;;;19.40;64.70;;;;;;4992107;28;20058;-70
2023/05/07 05:54:55;;;;;;;3.92;2.83;;;19.30;64.70;;;;;;4992013;28;20058;-70
2023/05/07 05:57:22;;;;;;;4.07;2.92;;;19.30;64.60;;;;;;4992368;28;20046;-70
2023/05/07 05:59:50;;;;;;;3.80;2.70;;;19.30;64.60;;;;;;4992049;28;20446;-70
2023/05/07 06:02:17;;;;;;;3.78;2.60;;;19.30;64.60;;;;;;4990686;28;20073;-71
2023/05/07 06:04:45;;;;;;;3.50;2.30;;;19.40;64.70;;;;;;4991784;28;20046;-70
2023/05/07 06:07:11;;;;;;;3.80;2.75;;;19.30;64.70;;;;;;4990644;28;20057;-70
2023/05/07 06:09:38;;;;;;;3.55;2.45;;;19.30;64.70;;;;;;4991591;28;20050;-69
2023/05/07 06:12:06;;;;;;;3.80;2.65;;;19.40;64.70;;;;;;4991517;28;20488;-70
2023/05/07 06:14:33;;;;;;;3.80;2.60;;;19.40;64.70;;;;;;4991230;28;20050;-70
2023/05/07 06:17:01;;;;;;;4.53;3.20;;;19.30;65.20;;;;;;4991636;28;20420;-70
2023/05/07 06:19:28;;;;;;;4.30;3.03;;;19.40;64.70;;;;;;4991682;28;20129;-70
2023/05/07 06:21:56;;;;;;;4.82;2.90;;;19.40;64.70;;;;;;4991462;28;20055;-70
2023/05/07 06:24:23;;;;;;;4.88;3.17;;;19.30;64.60;;;;;;4991389;28;20062;-70
2023/05/07 06:26:50;;;;;;;3.97;2.72;;;19.30;64.70;;;;;;4991394;28;20042;-71
2023/05/07 06:29:17;;;;;;;4.22;2.85;;;19.40;64.70;;;;;;4990081;28;20412;-71
2023/05/07 06:31:44;;;;;;;3.97;3.03;;;19.30;64.60;;;;;;4990098;28;20057;-71
2023/05/07 06:34:14;;;;;;;3.92;2.63;;;19.30;64.70;;;;;;4991413;28;20049;-70
2023/05/07 06:36:41;;;;;;;4.15;2.70;;;19.40;64.70;;;;;;5009168;28;20490;-70
2023/05/07 06:39:08;;;;;;;4.30;2.72;;;19.40;64.70;;;;;;5010910;28;20056;-70
2023/05/07 06:41:36;;;;;;;4.32;2.60;;;19.30;64.70;;;;;;5009220;28;20046;-70
2023/05/07 06:44:03;;;;;;;3.85;2.72;;;19.30;64.70;;;;;;4989783;28;20109;-71
2023/05/07 06:46:30;;;;;;;4.97;2.95;;;19.30;64.70;;;;;;4991117;28;20062;-70
2023/05/07 06:48:57;;;;;;;4.35;3.25;;;19.30;64.70;;;;;;4991170;28;20054;-70
2023/05/07 06:51:26;;;;;;;4.38;2.70;;;19.30;64.70;;;;;;4991297;28;20140;-70
2023/05/07 06:53:53;;;;;;;3.67;2.58;;;19.30;65.30;;;;;;4989718;28;20062;-71
2023/05/07 06:56:20;;;;;;;4.03;2.97;;;19.30;64.70;;;;;;4989865;28;20407;-70
2023/05/07 06:58:47;;;;;;;3.83;2.88;;;19.30;64.70;;;;;;4991076;28;20046;-71
2023/05/07 07:01:14;;;;;;;4.10;3.05;;;19.40;64.80;;;;;;4989806;28;20054;-70
2023/05/07 07:03:41;;;;;;;4.00;2.78;;;19.30;64.70;;;;;;4991087;28;20164;-71
2023/05/07 07:06:08;;;;;;;4.43;3.17;;;19.30;64.70;;;;;;4990966;28;20126;-71
2023/05/07 07:08:38;;;;;;;4.00;2.63;;;19.30;64.70;;;;;;4990574;28;20108;-71
2023/05/07 07:11:05;;;;;;;;;;;19.40;64.80;;;;;;4991419;28;20056;-71
2023/05/07 07:13:32;;;;;;;4.28;2.78;;;19.40;64.80;;;;;;4988960;28;19955;-71
2023/05/07 07:15:59;;;;;;;4.68;3.53;;;19.30;64.60;;;;;;4989144;28;20050;-71
2023/05/07 07:18:26;;;;;;;4.43;3.00;;;19.40;64.80;;;;;;4990469;28;20050;-71
2023/05/07 07:20:53;;;;;;;3.85;2.85;;;19.30;64.70;;;;;;4990470;28;20058;-71
2023/05/07 07:23:20;;;;;;;4.20;3.17;;;19.40;64.70;;;;;;4989369;28;20062;-72
2023/05/07 07:25:48;;;;;;;4.70;3.20;;;19.30;64.70;;;;;;4990143;28;20805;-72
2023/05/07 07:28:15;;;;;;;4.05;3.13;;;19.40;64.70;;;;;;4990410;28;20050;-70
2023/05/07 07:30:42;;;;;;;4.28;3.00;;;19.40;64.70;;;;;;4988949;28;20061;-71
2023/05/07 07:33:09;;;;;;;4.18;2.92;;;19.40;64.70;;;;;;4988944;28;20054;-72
2023/05/07 07:35:36;;;;;;;4.80;3.50;;;19.40;64.70;;;;;;4988813;28;20065;-71
2023/05/07 07:38:03;;;;;;;4.40;3.15;;;19.40;64.70;;;;;;4990352;28;20058;-72
2023/05/07 07:40:30;;;;;;;4.15;3.00;;;19.40;64.70;;;;;;4990140;28;20050;-72
2023/05/07 07:42:59;;;;;;;4.30;3.05;;;19.40;64.70;;;;;;4989750;28;20141;-72
2023/05/07 07:45:26;;;;;;;4.80;3.38;;;19.40;64.70;;;;;;4990345;28;20082;-72
2023/05/07 07:47:53;;;;;;;4.72;3.55;;;19.40;64.60;;;;;;4989595;28;20058;-72
2023/05/07 07:50:20;;;;;;;4.45;3.70;;;19.40;64.60;;;;;;4993082;28;20522;-72
2023/05/07 07:52:47;;;;;;;4.38;3.17;;;19.40;64.60;;;;;;4993107;28;20494;-72
2023/05/07 07:55:17;;;;;;;4.65;3.10;;;19.40;64.70;;;;;;4993893;28;20054;-71
2023/05/07 07:57:44;;;;;;;4.32;3.20;;;19.40;64.60;;;;;;4992935;28;20080;-71
2023/05/07 08:00:14;;;;;;;4.57;3.50;;;19.40;64.70;;;;;;4994004;28;20093;-72
2023/05/07 08:02:41;;;;;;;3.70;2.90;;;19.40;64.60;;;;;;4994030;28;20054;-72
2023/05/07 08:05:09;;;;;;;4.07;3.05;;;19.40;64.60;;;;;;4994062;28;20058;-72
2023/05/07 08:07:36;;;;;;;4.82;3.35;;;19.40;64.60;;;;;;4994145;28;20046;-71
2023/05/07 08:10:03;;;;;;;5.22;3.58;;;19.40;64.60;;;;;;4992453;28;20066;-72
2023/05/07 08:12:30;;;;;;;5.07;3.53;;;19.50;64.70;;;;;;4992849;28;20062;-72
2023/05/07 08:14:57;;;;;;;3.95;3.13;;;19.40;64.60;;;;;;4992379;28;20058;-72
2023/05/07 08:17:25;;;;;;;5.03;3.47;;;19.40;64.60;;;;;;4992700;28;20061;-72
2023/05/07 08:19:52;;;;;;;4.40;3.60;;;19.40;64.60;;;;;;4993400;28;20480;-71
2023/05/07 08:22:19;;;;;;;5.25;3.60;;;19.50;64.60;;;;;;4993834;28;20100;-71
2023/05/07 08:24:46;;;;;;;4.60;3.35;;;19.50;64.60;;;;;;4993440;28;20069;-71
2023/05/07 08:27:13;;;;;;;4.97;3.47;;;19.50;64.60;;;;;;4992327;28;20439;-71
2023/05/07 08:29:40;;;;;;;4.28;3.40;;;19.50;64.60;;;;;;4993424;28;20065;-72
2023/05/07 08:32:07;;;;;;;4.43;3.50;;;19.50;64.60;;;;;;4993377;28;20050;-71
2023/05/07 08:34:35;;;;;;;5.22;3.35;;;19.50;65.20;;;;;;4993605;28;20080;-71
2023/05/07 08:37:02;;;;;;;5.10;3.40;;;19.50;64.60;;;;;;4993098;28;20496;-72
2023/05/07 08:39:29;;;;;;;4.32;3.15;;;19.50;64.50;;;;;;4993533;28;20054;-71
2023/05/07 08:41:57;;;;;;;4.00;3.20;;;19.50;64.60;;;;;;4993031;28;20392;-71
2023/05/07 08:44:28;;;;;;;4.30;3.33;;;19.50;64.50;;;;;;4991636;28;20054;-71
2023/05/07 08:46:56;;;;;;;4.53;3.65;;;19.50;64.50;;;;;;4991801;28;20086;-71
2023/05/07 08:49:23;;;;;;;4.20;3.15;;;19.50;64.50;;;;;;4991935;28;20483;-72
2023/05/07 08:51:52;;;;;;;4.20;2.90;;;19.50;64.50;;;;;;4993035;28;20050;-72
2023/05/07 08:54:21;;;;;;;4.60;3.28;;;19.50;64.50;;;;;;4992830;28;20054;-71
2023/05/07 08:56:48;;;;;;;5.47;3.42;;;19.50;64.50;;;;;;4991996;28;20060;-72
2023/05/07 08:59:15;;;;;;;4.72;3.40;;;19.50;64.50;;;;;;4992710;28;20054;-71
2023/05/07 09:01:42;;;;;;;4.60;3.40;;;19.50;64.50;;;;;;4993295;28;20050;-71
2023/05/07 09:04:09;;;;;;;4.35;3.00;;;19.60;64.50;;;;;;4993077;28;20061;-72
2023/05/07 09:06:37;;;;;;;5.22;3.50;;;19.50;64.50;;;;;;4993008;28;20050;-72
2023/05/07 09:09:06;;;;;;;5.18;3.63;;;19.60;64.50;;;;;;4991647;28;20051;-72
2023/05/07 09:11:33;;;;;;;4.38;3.20;;;19.60;64.50;;;;;;4992983;28;20096;-71
2023/05/07 09:14:01;;;;;;;4.53;3.58;;;19.60;64.50;;;;;;4992364;28;20046;-72
2023/05/07 09:16:29;;;;;;;3.88;2.90;;;19.60;64.50;;;;;;4991424;28;20072;-71
2023/05/07 09:18:59;;;;;;;4.85;3.15;;;19.60;64.50;;;;;;4992475;28;20097;-71
2023/05/07 09:21:27;;;;;;;4.53;3.17;;;19.60;64.50;;;;;;4991401;28;20512;-71
2023/05/07 09:23:55;;;;;;;4.50;3.00;;;19.60;64.50;;;;;;4992678;28;20057;-71
2023/05/07 09:26:24;;;;;;;3.90;3.13;;;19.60;64.40;;;;;;4992551;28;20046;-71
2023/05/07 09:28:52;;;;;;;4.60;3.22;;;19.60;64.40;;;;;;4991291;28;20527;-71
2023/05/07 09:31:19;;;;;;;4.70;3.30;;;19.60;64.40;;;;;;4991048;28;20518;-71
2023/05/07 09:33:46;;;;;;;5.38;3.50;;;19.60;64.40;;;;;;4992785;28;20064;-71
2023/05/07 09:36:13;;;;;;;4.15;3.05;;;19.60;64.40;;;;;;4992636;28;20062;-72
2023/05/07 09:38:41;;;;;;;4.35;3.15;;;19.60;64.30;;;;;;4992604;28;20412;-71
2023/05/07 09:41:09;;;;;;;3.83;3.00;;;19.70;64.40;;;;;;4992211;28;20530;-71
2023/05/07 09:43:38;;;;;;;4.28;3.22;;;19.70;64.90;;;;;;4992241;28;20053;-72
2023/05/07 09:46:07;;;;;;;;;;;19.70;64.40;;;;;;4993122;28;20062;-72
2023/05/07 09:48:38;;;;;;;3.88;2.90;;;19.70;64.40;;;;;;4992522;28;19926;-72
2023/05/07 09:51:12;;;;;;;4.43;2.90;;;19.70;64.30;;;;;;4992579;28;20138;-71
2023/05/07 09:53:40;;;;;;;4.00;2.92;;;19.70;64.30;;;;;;4991126;28;20502;-71
2023/05/07 09:56:08;;;;;;;4.60;2.67;;;19.70;64.30;;;;;;4991977;28;20140;-71
2023/05/07 09:58:42;;;;;;;4.10;3.05;;;19.70;64.40;;;;;;4990627;28;20050;-71
2023/05/07 10:01:11;;;;;;;4.25;3.42;;;19.70;64.30;;;;;;4991987;28;20058;-71
2023/05/07 10:03:40;;;;;;;4.22;3.30;;;19.70;64.40;;;;;;4990855;28;20054;-71
2023/05/07 10:06:09;;;;;;;3.88;3.15;;;19.70;64.40;;;;;;4991767;28;20056;-71
2023/05/07 10:08:37;;;;;;;4.05;3.03;;;19.80;64.50;;;;;;4990652;28;20526;-71
2023/05/07 10:11:05;;;;;;;4.43;3.58;;;19.70;64.40;;;;;;4989692;28;20496;-72
2023/05/07 10:13:34;;;;;;;4.07;2.67;;;19.80;64.40;;;;;;4991284;28;20057;-72
2023/05/07 10:16:04;;;;;;;3.70;3.03;;;19.80;64.40;;;;;;4991405;28;20145;-70
2023/05/07 10:18:32;;;;;;;4.68;3.00;;;19.80;64.40;;;;;;4991786;28;20077;-71
2023/05/07 10:21:06;;;;;;;3.97;3.17;;;19.80;64.40;;;;;;4991263;28;20056;-70
2023/05/07 10:23:34;;;;;;;4.47;3.20;;;19.90;64.40;;;;;;4990194;28;20492;-71
2023/05/07 10:26:04;;;;;;;4.22;3.08;;;19.80;64.30;;;;;;4990058;28;20046;-72
2023/05/07 10:28:35;;;;;;;3.88;3.03;;;19.90;64.40;;;;;;4991182;28;20050;-71
2023/05/07 10:31:15;;;;;;;3.90;2.85;;;19.90;64.40;;;;;;4991203;28;20065;-72
2023/05/07 10:33:44;;;;;;;3.90;2.97;;;19.90;64.40;;;;;;4989764;28;20054;-72
2023/05/07 10:36:11;;;;;;;3.63;2.80;;;19.90;64.40;;;;;;4989845;28;20069;-71
2023/05/07 10:38:40;;;;;;;4.15;3.00;;;19.90;64.40;;;;;;4991250;28;20061;-72
2023/05/07 10:41:07;;;;;;;3.88;2.70;;;19.90;64.40;;;;;;4991019;28;20046;-72
2023/05/07 10:43:42;;;;;;;3.92;2.67;;;19.90;64.40;;;;;;4990817;28;20120;-71
2023/05/07 10:46:16;;;;;;;3.45;2.75;;;19.90;64.50;;;;;;4991054;28;20086;-71
2023/05/07 10:49:11;;;;;;;4.47;3.05;;;20.00;64.50;;;;;;4990962;28;20054;-72
2023/05/07 10:51:38;;;;;;;4.20;3.10;;;20.00;64.50;;;;;;4989539;28;20145;-72
2023/05/07 10:54:22;;;;;;;4.38;3.45;;;20.00;64.50;;;;;;4990711;28;20050;-71
2023/05/07 10:56:50;;;;;;;3.92;3.03;;;20.00;64.50;;;;;;4989444;28;20058;-72
2023/05/07 10:59:41;;;;;;;3.83;2.70;;;20.00;64.50;;;;;;4990958;28;20051;-72
2023/05/07 11:02:11;;;;;;;4.43;3.30;;;20.00;64.50;;;;;;4989380;28;20058;-71
2023/05/07 11:04:38;;;;;;;;;;;20.00;64.50;;;;;;4990052;28;20054;-72
2023/05/07 11:07:28;;;;;;;4.25;2.70;;;20.00;64.50;;;;;;4990427;28;19980;-72
2023/05/07 11:10:01;;;;;;;3.65;2.88;;;20.00;64.50;;;;;;5008221;28;20057;-71
2023/05/07 11:12:56;;;;;;;3.97;2.83;;;20.00;64.40;;;;;;5010306;28;20392;-71
2023/05/07 11:15:37;;;;;;;5.05;2.95;;;20.10;64.60;;;;;;5009834;28;20562;-71
2023/05/07 11:18:06;;;;;;;3.97;3.20;;;20.10;64.60;;;;;;5009124;28;20057;-72
2023/05/07 11:20:53;;;;;;;3.40;2.95;;;20.10;64.50;;;;;;5009854;28;20064;-72
2023/05/07 11:24:00;;;;;;;3.67;2.65;;;20.10;64.50;;;;;;5009862;28;20641;-71
2023/05/07 11:26:31;;;;;;;3.75;2.80;;;20.10;64.60;;;;;;5009947;28;20090;-72
2023/05/07 11:29:00;;;;;;;4.20;3.08;;;20.10;64.50;;;;;;5009598;28;20133;-71
2023/05/07 11:31:29;;;;;;;3.97;2.78;;;20.20;64.50;;;;;;5009170;28;20057;-71
2023/05/07 11:33:58;;;;;;;4.88;3.38;;;20.20;64.50;;;;;;5009527;28;20050;-72
2023/05/07 11:36:26;;;;;;;3.75;2.85;;;20.20;64.60;;;;;;5009254;28;20049;-71
2023/05/07 11:38:53;;;;;;;4.03;2.72;;;20.20;64.50;;;;;;5009437;28;20077;-72
2023/05/07 11:41:20;;;;;;;3.47;2.78;;;20.20;64.50;;;;;;4996830;28;20109;-71
2023/05/07 11:44:00;;;;;;;4.63;3.15;;;20.20;64.60;;;;;;4989864;28;20061;-72
2023/05/07 11:46:29;;;;;;;3.70;2.85;;;20.20;64.50;;;;;;4990140;28;20050;-72
2023/05/07 11:48:58;;;;;;;3.90;2.90;;;20.30;64.60;;;;;;4990044;28;20050;-72
2023/05/07 11:51:26;;;;;;;3.20;2.58;;;20.30;64.50;;;;;;4990094;28;20459;-71
2023/05/07 11:53:54;;;;;;;4.15;2.95;;;20.30;64.50;;;;;;4988832;28;20142;-72
2023/05/07 11:56:21;;;;;;;3.80;2.80;;;20.30;64.50;;;;;;4989714;28;20090;-72
2023/05/07 11:58:49;;;;;;;3.33;2.55;;;20.30;64.60;;;;;;4989926;28;20794;-72
2023/05/07 12:01:18;;;;;;;4.10;2.63;;;20.30;64.50;;;;;;4989837;28;20500;-72
2023/05/07 12:03:46;;;;;;;3.45;2.65;;;20.30;64.50;;;;;;4990493;28;20046;-72
2023/05/07 12:06:16;;;;;;;3.85;2.85;;;20.40;64.50;;;;;;4990086;28;20144;-72
2023/05/07 12:08:44;;;;;;;3.70;2.42;;;20.40;64.60;;;;;;4989875;28;20050;-72
2023/05/07 12:11:16;;;;;;;3.55;2.72;;;20.50;64.50;;;;;;4988946;28;20062;-72
2023/05/07 12:13:43;;;;;;;3.55;2.70;;;20.40;64.50;;;;;;4989423;28;20570;-72
2023/05/07 12:16:10;;;;;;;4.18;3.00;;;20.40;64.50;;;;;;4990024;28;20058;-71
2023/05/07 12:18:38;;;;;;;3.72;2.55;;;20.50;64.50;;;;;;4988373;28;20055;-72
2023/05/07 12:21:07;;;;;;;3.78;2.85;;;20.50;64.50;;;;;;4989976;28;20046;-72
2023/05/07 12:23:36;;;;;;;3.78;2.85;;;20.50;64.50;;;;;;4989762;28;20046;-72
2023/05/07 12:26:04;;;;;;;4.32;2.70;;;20.50;65.10;;;;;;4989530;28;20062;-72
2023/05/07 12:28:31;;;;;;;3.53;2.67;;;20.60;65.10;;;;;;4988650;28;20392;-72
2023/05/07 12:30:58;;;;;;;3.42;2.55;;;20.60;64.50;;;;;;4989518;28;20523;-72
2023/05/07 12:33:27;;;;;;;3.42;2.55;;;20.60;64.50;;;;;;4989928;28;20050;-72
2023/05/07 12:35:56;;;;;;;3.50;2.70;;;20.70;64.50;;;;;;4993177;28;20175;-72
2023/05/07 12:38:23;;;;;;;3.30;2.40;;;20.70;64.50;;;;;;4992232;28;20054;-72
2023/05/07 12:40:55;;;;;;;3.78;2.78;;;20.70;64.50;;;;;;4991604;28;20054;-72
2023/05/07 12:43:25;;;;;;;3.38;2.58;;;20.70;64.50;;;;;;4993055;28;20050;-72
2023/05/07 12:45:54;;;;;;;2.80;2.17;;;20.70;64.40;;;;;;4993435;28;20419;-71
2023/05/07 12:48:22;;;;;;;3.47;2.58;;;20.80;64.50;;;;;;4993386;28;20058;-72
2023/05/07 12:50:50;;;;;;;3.55;2.33;;;20.80;64.40;;;;;;4993055;28;20076;-71
2023/05/07 12:53:18;;;;;;;3.05;2.45;;;20.80;64.40;;;;;;4992930;28;20058;-72